sensor_id;sensor_type;location;lat;lon;timestamp;P1;durP1;ratioP1;P2;durP2;ratioP2
12950;SDS011;6540;50.858;7.232;2022-08-03T00:01:00;2.73;;;2.50;;
12950;SDS011;6540;50.858;7.232;2022-08-03T00:03:25;3.13;;;2.83;;
12950;SDS011;6540;50.858;7.232;2022-08-03T00:05:51;3.93;;;3.07;;
12950;SDS011;6540;50.858;7.232;2022-08-03T00:08:16;4.30;;;2.90;;
12950;SDS011;6540;50.858;7.232;2022-08-03T00:10:42;3.57;;;3.30;;
12950;SDS011;6540;50.858;7.232;2022-08-03T00:13:07;3.33;;;3.03;;
12950;SDS011;6540;50.858;7.232;2022-08-03T00:15:33;3.60;;;3.20;;
12950;SDS011;6540;50.858;7.232;2022-08-03T00:17:58;4.30;;;3.33;;
12950;SDS011;6540;50.858;7.232;2022-08-03T00:20:23;4.33;;;3.47;;
12950;SDS011;6540;50.858;7.232;2022-08-03T00:22:49;3.70;;;3.37;;
12950;SDS011;6540;50.858;7.232;2022-08-03T00:25:15;4.10;;;3.60;;
12950;SDS011;6540;50.858;7.232;2022-08-03T00:27:40;4.53;;;3.50;;
12950;SDS011;6540;50.858;7.232;2022-08-03T00:30:06;3.97;;;3.57;;
12950;SDS011;6540;50.858;7.232;2022-08-03T00:32:32;3.77;;;3.47;;
12950;SDS011;6540;50.858;7.232;2022-08-03T00:34:57;3.70;;;2.97;;
12950;SDS011;6540;50.858;7.232;2022-08-03T00:37:22;3.63;;;3.30;;
12950;SDS011;6540;50.858;7.232;2022-08-03T00:39:48;3.80;;;3.50;;
12950;SDS011;6540;50.858;7.232;2022-08-03T00:42:13;4.63;;;3.07;;
12950;SDS011;6540;50.858;7.232;2022-08-03T00:44:40;4.50;;;3.80;;
12950;SDS011;6540;50.858;7.232;2022-08-03T00:47:06;4.20;;;3.80;;
12950;SDS011;6540;50.858;7.232;2022-08-03T00:49:32;3.50;;;3.10;;
12950;SDS011;6540;50.858;7.232;2022-08-03T00:51:58;3.77;;;3.43;;
12950;SDS011;6540;50.858;7.232;2022-08-03T00:54:24;3.70;;;3.20;;
12950;SDS011;6540;50.858;7.232;2022-08-03T00:56:50;3.33;;;2.83;;
12950;SDS011;6540;50.858;7.232;2022-08-03T00:59:15;3.40;;;3.10;;
12950;SDS011;6540;50.858;7.232;2022-08-03T01:01:42;3.23;;;2.93;;
12950;SDS011;6540;50.858;7.232;2022-08-03T01:04:07;3.50;;;3.20;;
12950;SDS011;6540;50.858;7.232;2022-08-03T01:06:35;5.50;;;3.37;;
12950;SDS011;6540;50.858;7.232;2022-08-03T01:14:17;3.23;;;2.93;;
12950;SDS011;6540;50.858;7.232;2022-08-03T01:31:00;9.30;;;3.90;;
12950;SDS011;6540;50.858;7.232;2022-08-03T01:33:34;6.17;;;4.17;;
12950;SDS011;6540;50.858;7.232;2022-08-03T01:36:04;5.10;;;3.77;;
12950;SDS011;6540;50.858;7.232;2022-08-03T01:38:34;6.30;;;3.93;;
12950;SDS011;6540;50.858;7.232;2022-08-03T01:41:57;4.10;;;3.43;;
12950;SDS011;6540;50.858;7.232;2022-08-03T01:43:59;4.43;;;3.30;;
12950;SDS011;6540;50.858;7.232;2022-08-03T01:46:26;7.00;;;3.47;;
12950;SDS011;6540;50.858;7.232;2022-08-03T01:48:53;5.47;;;3.40;;
12950;SDS011;6540;50.858;7.232;2022-08-03T01:51:20;6.90;;;3.53;;
12950;SDS011;6540;50.858;7.232;2022-08-03T01:53:47;4.03;;;3.73;;
12950;SDS011;6540;50.858;7.232;2022-08-03T01:56:15;7.00;;;4.20;;
12950;SDS011;6540;50.858;7.232;2022-08-03T01:58:43;4.10;;;3.60;;
12950;SDS011;6540;50.858;7.232;2022-08-03T02:01:12;4.73;;;3.80;;
12950;SDS011;6540;50.858;7.232;2022-08-03T02:03:40;4.73;;;3.73;;
12950;SDS011;6540;50.858;7.232;2022-08-03T02:06:08;4.10;;;3.70;;
12950;SDS011;6540;50.858;7.232;2022-08-03T02:08:35;4.43;;;3.80;;
12950;SDS011;6540;50.858;7.232;2022-08-03T02:11:03;3.97;;;3.57;;
12950;SDS011;6540;50.858;7.232;2022-08-03T02:13:29;3.30;;;2.93;;
12950;SDS011;6540;50.858;7.232;2022-08-03T02:15:58;3.97;;;3.67;;
12950;SDS011;6540;50.858;7.232;2022-08-03T02:18:24;4.37;;;3.87;;
12950;SDS011;6540;50.858;7.232;2022-08-03T02:20:51;4.10;;;3.80;;
12950;SDS011;6540;50.858;7.232;2022-08-03T02:23:17;3.73;;;3.43;;
12950;SDS011;6540;50.858;7.232;2022-08-03T02:25:44;3.93;;;3.60;;
12950;SDS011;6540;50.858;7.232;2022-08-03T02:28:16;4.67;;;3.67;;
12950;SDS011;6540;50.858;7.232;2022-08-03T02:30:44;3.73;;;3.43;;
12950;SDS011;6540;50.858;7.232;2022-08-03T02:33:15;4.40;;;4.00;;
12950;SDS011;6540;50.858;7.232;2022-08-03T02:35:46;4.33;;;3.67;;
12950;SDS011;6540;50.858;7.232;2022-08-03T02:38:14;3.97;;;3.60;;
12950;SDS011;6540;50.858;7.232;2022-08-03T02:40:43;3.70;;;3.40;;
12950;SDS011;6540;50.858;7.232;2022-08-03T02:43:10;3.90;;;3.37;;
12950;SDS011;6540;50.858;7.232;2022-08-03T02:45:42;4.00;;;3.60;;
12950;SDS011;6540;50.858;7.232;2022-08-03T02:48:09;3.73;;;3.43;;
12950;SDS011;6540;50.858;7.232;2022-08-03T02:50:35;3.70;;;3.40;;
12950;SDS011;6540;50.858;7.232;2022-08-03T02:53:02;8.10;;;3.80;;
12950;SDS011;6540;50.858;7.232;2022-08-03T02:55:28;4.80;;;3.63;;
12950;SDS011;6540;50.858;7.232;2022-08-03T02:57:57;3.93;;;3.63;;
12950;SDS011;6540;50.858;7.232;2022-08-03T03:00:23;3.63;;;3.33;;
12950;SDS011;6540;50.858;7.232;2022-08-03T03:02:49;5.03;;;3.70;;
12950;SDS011;6540;50.858;7.232;2022-08-03T03:05:16;4.40;;;3.80;;
12950;SDS011;6540;50.858;7.232;2022-08-03T03:07:42;3.57;;;3.27;;
12950;SDS011;6540;50.858;7.232;2022-08-03T03:10:08;5.07;;;3.60;;
12950;SDS011;6540;50.858;7.232;2022-08-03T03:12:35;3.83;;;3.53;;
12950;SDS011;6540;50.858;7.232;2022-08-03T03:15:04;4.83;;;3.77;;
12950;SDS011;6540;50.858;7.232;2022-08-03T03:17:30;4.33;;;3.77;;
12950;SDS011;6540;50.858;7.232;2022-08-03T03:19:57;4.20;;;3.33;;
12950;SDS011;6540;50.858;7.232;2022-08-03T03:22:24;4.23;;;3.83;;
12950;SDS011;6540;50.858;7.232;2022-08-03T03:24:51;4.40;;;4.00;;
12950;SDS011;6540;50.858;7.232;2022-08-03T03:27:18;4.73;;;4.17;;
12950;SDS011;6540;50.858;7.232;2022-08-03T03:29:45;4.53;;;3.80;;
12950;SDS011;6540;50.858;7.232;2022-08-03T03:32:11;4.77;;;4.03;;
12950;SDS011;6540;50.858;7.232;2022-08-03T03:34:36;4.83;;;4.13;;
12950;SDS011;6540;50.858;7.232;2022-08-03T03:37:02;3.87;;;3.33;;
12950;SDS011;6540;50.858;7.232;2022-08-03T03:39:27;5.73;;;3.80;;
12950;SDS011;6540;50.858;7.232;2022-08-03T03:41:53;4.23;;;3.83;;
12950;SDS011;6540;50.858;7.232;2022-08-03T03:44:18;4.27;;;3.87;;
12950;SDS011;6540;50.858;7.232;2022-08-03T03:46:44;3.77;;;3.47;;
12950;SDS011;6540;50.858;7.232;2022-08-03T03:49:09;4.07;;;3.77;;
12950;SDS011;6540;50.858;7.232;2022-08-03T03:51:35;4.20;;;3.60;;
12950;SDS011;6540;50.858;7.232;2022-08-03T03:54:01;3.60;;;3.30;;
12950;SDS011;6540;50.858;7.232;2022-08-03T03:56:29;5.13;;;3.97;;
12950;SDS011;6540;50.858;7.232;2022-08-03T03:58:55;5.93;;;3.60;;
12950;SDS011;6540;50.858;7.232;2022-08-03T04:01:20;3.37;;;3.10;;
12950;SDS011;6540;50.858;7.232;2022-08-03T04:03:46;3.90;;;3.57;;
12950;SDS011;6540;50.858;7.232;2022-08-03T04:06:11;3.73;;;3.23;;
12950;SDS011;6540;50.858;7.232;2022-08-03T04:08:56;3.87;;;3.53;;
12950;SDS011;6540;50.858;7.232;2022-08-03T04:11:50;4.10;;;3.70;;
12950;SDS011;6540;50.858;7.232;2022-08-03T04:14:18;4.27;;;3.87;;
12950;SDS011;6540;50.858;7.232;2022-08-03T04:16:49;4.40;;;4.00;;
12950;SDS011;6540;50.858;7.232;2022-08-03T04:19:29;3.97;;;3.57;;
12950;SDS011;6540;50.858;7.232;2022-08-03T04:21:56;5.13;;;3.77;;
12950;SDS011;6540;50.858;7.232;2022-08-03T04:24:35;5.20;;;3.50;;
12950;SDS011;6540;50.858;7.232;2022-08-03T04:27:05;5.90;;;4.00;;
12950;SDS011;6540;50.858;7.232;2022-08-03T04:29:33;3.60;;;3.23;;
12950;SDS011;6540;50.858;7.232;2022-08-03T04:32:01;4.60;;;4.03;;
12950;SDS011;6540;50.858;7.232;2022-08-03T04:34:30;3.77;;;3.47;;
12950;SDS011;6540;50.858;7.232;2022-08-03T04:36:57;8.30;;;3.93;;
12950;SDS011;6540;50.858;7.232;2022-08-03T04:39:25;5.00;;;3.60;;
12950;SDS011;6540;50.858;7.232;2022-08-03T04:41:55;6.47;;;3.93;;
12950;SDS011;6540;50.858;7.232;2022-08-03T04:44:24;4.40;;;3.80;;
12950;SDS011;6540;50.858;7.232;2022-08-03T04:46:50;3.43;;;3.13;;
12950;SDS011;6540;50.858;7.232;2022-08-03T04:49:17;3.70;;;3.40;;
12950;SDS011;6540;50.858;7.232;2022-08-03T04:51:45;4.30;;;3.90;;
12950;SDS011;6540;50.858;7.232;2022-08-03T04:54:11;4.17;;;3.77;;
12950;SDS011;6540;50.858;7.232;2022-08-03T04:56:40;5.07;;;3.77;;
12950;SDS011;6540;50.858;7.232;2022-08-03T04:59:06;4.40;;;4.00;;
12950;SDS011;6540;50.858;7.232;2022-08-03T05:01:32;4.67;;;3.70;;
12950;SDS011;6540;50.858;7.232;2022-08-03T05:03:57;4.87;;;4.37;;
12950;SDS011;6540;50.858;7.232;2022-08-03T05:06:23;4.17;;;3.77;;
12950;SDS011;6540;50.858;7.232;2022-08-03T05:08:48;4.00;;;3.57;;
12950;SDS011;6540;50.858;7.232;2022-08-03T05:11:15;4.13;;;3.43;;
12950;SDS011;6540;50.858;7.232;2022-08-03T05:13:41;3.50;;;3.20;;
12950;SDS011;6540;50.858;7.232;2022-08-03T05:16:07;4.50;;;4.03;;
12950;SDS011;6540;50.858;7.232;2022-08-03T05:18:32;4.13;;;3.73;;
12950;SDS011;6540;50.858;7.232;2022-08-03T05:20:57;4.87;;;4.07;;
12950;SDS011;6540;50.858;7.232;2022-08-03T05:23:23;3.97;;;3.50;;
12950;SDS011;6540;50.858;7.232;2022-08-03T05:25:48;4.13;;;3.73;;
12950;SDS011;6540;50.858;7.232;2022-08-03T05:28:13;4.23;;;3.33;;
12950;SDS011;6540;50.858;7.232;2022-08-03T05:30:39;3.47;;;3.17;;
12950;SDS011;6540;50.858;7.232;2022-08-03T05:33:05;3.63;;;3.33;;
12950;SDS011;6540;50.858;7.232;2022-08-03T05:35:31;6.17;;;3.57;;
12950;SDS011;6540;50.858;7.232;2022-08-03T05:37:59;3.73;;;3.33;;
12950;SDS011;6540;50.858;7.232;2022-08-03T05:40:24;3.80;;;3.50;;
12950;SDS011;6540;50.858;7.232;2022-08-03T05:42:50;4.33;;;3.13;;
12950;SDS011;6540;50.858;7.232;2022-08-03T05:45:15;4.43;;;3.47;;
12950;SDS011;6540;50.858;7.232;2022-08-03T05:47:44;5.13;;;3.50;;
12950;SDS011;6540;50.858;7.232;2022-08-03T05:50:10;4.27;;;3.47;;
12950;SDS011;6540;50.858;7.232;2022-08-03T05:52:36;3.73;;;3.43;;
12950;SDS011;6540;50.858;7.232;2022-08-03T05:55:02;4.17;;;3.73;;
12950;SDS011;6540;50.858;7.232;2022-08-03T05:57:28;3.60;;;3.30;;
12950;SDS011;6540;50.858;7.232;2022-08-03T05:59:54;5.70;;;3.80;;
12950;SDS011;6540;50.858;7.232;2022-08-03T06:02:19;3.20;;;2.93;;
12950;SDS011;6540;50.858;7.232;2022-08-03T06:04:44;5.83;;;3.60;;
12950;SDS011;6540;50.858;7.232;2022-08-03T06:07:10;4.10;;;3.17;;
12950;SDS011;6540;50.858;7.232;2022-08-03T06:09:36;5.40;;;3.47;;
12950;SDS011;6540;50.858;7.232;2022-08-03T06:12:01;4.40;;;3.90;;
12950;SDS011;6540;50.858;7.232;2022-08-03T06:14:27;4.07;;;3.67;;
12950;SDS011;6540;50.858;7.232;2022-08-03T06:16:52;3.50;;;3.20;;
12950;SDS011;6540;50.858;7.232;2022-08-03T06:19:17;4.20;;;3.20;;
12950;SDS011;6540;50.858;7.232;2022-08-03T06:21:43;4.63;;;3.23;;
12950;SDS011;6540;50.858;7.232;2022-08-03T06:24:08;4.10;;;3.57;;
12950;SDS011;6540;50.858;7.232;2022-08-03T06:26:33;3.57;;;3.20;;
12950;SDS011;6540;50.858;7.232;2022-08-03T06:28:59;4.03;;;3.33;;
12950;SDS011;6540;50.858;7.232;2022-08-03T06:31:25;3.67;;;3.17;;
12950;SDS011;6540;50.858;7.232;2022-08-03T06:33:53;2.97;;;2.67;;
12950;SDS011;6540;50.858;7.232;2022-08-03T06:36:18;3.10;;;2.83;;
12950;SDS011;6540;50.858;7.232;2022-08-03T06:38:44;3.60;;;3.30;;
12950;SDS011;6540;50.858;7.232;2022-08-03T06:41:10;4.77;;;2.73;;
12950;SDS011;6540;50.858;7.232;2022-08-03T06:43:35;3.00;;;2.63;;
12950;SDS011;6540;50.858;7.232;2022-08-03T06:46:01;3.50;;;2.97;;
12950;SDS011;6540;50.858;7.232;2022-08-03T06:48:29;4.30;;;2.77;;
12950;SDS011;6540;50.858;7.232;2022-08-03T06:50:55;4.07;;;2.90;;
12950;SDS011;6540;50.858;7.232;2022-08-03T06:53:20;3.10;;;2.80;;
12950;SDS011;6540;50.858;7.232;2022-08-03T06:55:46;2.63;;;2.43;;
12950;SDS011;6540;50.858;7.232;2022-08-03T06:58:11;2.40;;;2.20;;
12950;SDS011;6540;50.858;7.232;2022-08-03T07:00:38;4.57;;;2.50;;
12950;SDS011;6540;50.858;7.232;2022-08-03T07:03:03;3.50;;;2.40;;
12950;SDS011;6540;50.858;7.232;2022-08-03T07:05:29;3.17;;;2.88;;
12950;SDS011;6540;50.858;7.232;2022-08-03T07:07:55;2.83;;;2.63;;
12950;SDS011;6540;50.858;7.232;2022-08-03T07:10:21;2.67;;;2.42;;
12950;SDS011;6540;50.858;7.232;2022-08-03T07:12:47;2.83;;;2.58;;
12950;SDS011;6540;50.858;7.232;2022-08-03T07:15:12;2.90;;;2.70;;
12950;SDS011;6540;50.858;7.232;2022-08-03T07:17:38;6.07;;;3.00;;
12950;SDS011;6540;50.858;7.232;2022-08-03T07:20:04;2.42;;;2.22;;
12950;SDS011;6540;50.858;7.232;2022-08-03T07:22:31;3.78;;;2.50;;
12950;SDS011;6540;50.858;7.232;2022-08-03T07:24:58;2.60;;;2.40;;
12950;SDS011;6540;50.858;7.232;2022-08-03T07:27:23;3.20;;;2.40;;
12950;SDS011;6540;50.858;7.232;2022-08-03T07:29:50;8.48;;;2.85;;
12950;SDS011;6540;50.858;7.232;2022-08-03T07:32:16;5.50;;;2.75;;
12950;SDS011;6540;50.858;7.232;2022-08-03T07:34:42;3.60;;;2.45;;
12950;SDS011;6540;50.858;7.232;2022-08-03T07:37:07;4.10;;;2.80;;
12950;SDS011;6540;50.858;7.232;2022-08-03T07:39:32;5.13;;;2.60;;
12950;SDS011;6540;50.858;7.232;2022-08-03T07:41:58;2.53;;;2.33;;
12950;SDS011;6540;50.858;7.232;2022-08-03T07:44:23;3.57;;;2.57;;
12950;SDS011;6540;50.858;7.232;2022-08-03T07:46:48;4.33;;;3.13;;
12950;SDS011;6540;50.858;7.232;2022-08-03T07:49:15;3.20;;;2.90;;
12950;SDS011;6540;50.858;7.232;2022-08-03T07:51:40;4.07;;;2.97;;
12950;SDS011;6540;50.858;7.232;2022-08-03T07:54:06;2.53;;;2.33;;
12950;SDS011;6540;50.858;7.232;2022-08-03T07:56:31;2.90;;;2.70;;
12950;SDS011;6540;50.858;7.232;2022-08-03T07:58:57;4.37;;;2.73;;
12950;SDS011;6540;50.858;7.232;2022-08-03T08:01:23;3.03;;;2.60;;
12950;SDS011;6540;50.858;7.232;2022-08-03T08:03:49;3.33;;;2.83;;
12950;SDS011;6540;50.858;7.232;2022-08-03T08:06:15;3.73;;;3.13;;
12950;SDS011;6540;50.858;7.232;2022-08-03T08:08:41;3.97;;;2.67;;
12950;SDS011;6540;50.858;7.232;2022-08-03T08:11:07;3.90;;;3.03;;
12950;SDS011;6540;50.858;7.232;2022-08-03T08:13:32;5.13;;;2.83;;
12950;SDS011;6540;50.858;7.232;2022-08-03T08:15:58;2.80;;;2.60;;
12950;SDS011;6540;50.858;7.232;2022-08-03T08:18:24;3.50;;;2.90;;
12950;SDS011;6540;50.858;7.232;2022-08-03T08:20:49;3.30;;;3.10;;
12950;SDS011;6540;50.858;7.232;2022-08-03T08:23:15;2.80;;;2.57;;
12950;SDS011;6540;50.858;7.232;2022-08-03T08:25:47;4.17;;;3.00;;
12950;SDS011;6540;50.858;7.232;2022-08-03T08:28:12;3.37;;;2.80;;
12950;SDS011;6540;50.858;7.232;2022-08-03T08:30:38;2.70;;;2.47;;
12950;SDS011;6540;50.858;7.232;2022-08-03T08:33:03;3.10;;;2.77;;
12950;SDS011;6540;50.858;7.232;2022-08-03T08:35:29;2.60;;;2.40;;
12950;SDS011;6540;50.858;7.232;2022-08-03T08:37:54;4.83;;;2.60;;
12950;SDS011;6540;50.858;7.232;2022-08-03T08:40:20;2.70;;;2.47;;
12950;SDS011;6540;50.858;7.232;2022-08-03T08:42:46;2.70;;;2.50;;
12950;SDS011;6540;50.858;7.232;2022-08-03T08:45:12;2.80;;;2.60;;
12950;SDS011;6540;50.858;7.232;2022-08-03T08:47:40;4.87;;;2.50;;
12950;SDS011;6540;50.858;7.232;2022-08-03T08:50:09;3.67;;;2.70;;
12950;SDS011;6540;50.858;7.232;2022-08-03T08:52:35;2.70;;;2.50;;
12950;SDS011;6540;50.858;7.232;2022-08-03T08:55:04;5.70;;;2.63;;
12950;SDS011;6540;50.858;7.232;2022-08-03T08:57:35;2.77;;;2.30;;
12950;SDS011;6540;50.858;7.232;2022-08-03T09:00:03;2.63;;;2.43;;
12950;SDS011;6540;50.858;7.232;2022-08-03T09:02:32;2.70;;;2.50;;
12950;SDS011;6540;50.858;7.232;2022-08-03T09:04:59;3.23;;;2.73;;
12950;SDS011;6540;50.858;7.232;2022-08-03T09:07:25;2.40;;;2.20;;
12950;SDS011;6540;50.858;7.232;2022-08-03T09:09:52;2.93;;;2.20;;
12950;SDS011;6540;50.858;7.232;2022-08-03T09:12:17;3.67;;;2.30;;
12950;SDS011;6540;50.858;7.232;2022-08-03T09:14:43;2.43;;;2.23;;
12950;SDS011;6540;50.858;7.232;2022-08-03T09:17:09;2.50;;;2.27;;
12950;SDS011;6540;50.858;7.232;2022-08-03T09:19:34;2.13;;;1.80;;
12950;SDS011;6540;50.858;7.232;2022-08-03T09:22:09;2.53;;;2.33;;
12950;SDS011;6540;50.858;7.232;2022-08-03T09:24:35;3.77;;;2.23;;
12950;SDS011;6540;50.858;7.232;2022-08-03T09:27:03;2.20;;;2.00;;
12950;SDS011;6540;50.858;7.232;2022-08-03T09:29:32;2.33;;;2.10;;
12950;SDS011;6540;50.858;7.232;2022-08-03T09:31:59;2.20;;;2.03;;
12950;SDS011;6540;50.858;7.232;2022-08-03T09:34:26;3.40;;;1.90;;
12950;SDS011;6540;50.858;7.232;2022-08-03T09:36:54;4.20;;;2.10;;
12950;SDS011;6540;50.858;7.232;2022-08-03T09:39:23;3.80;;;2.10;;
12950;SDS011;6540;50.858;7.232;2022-08-03T09:42:06;2.67;;;2.10;;
12950;SDS011;6540;50.858;7.232;2022-08-03T09:44:38;3.43;;;2.30;;
12950;SDS011;6540;50.858;7.232;2022-08-03T09:47:08;2.47;;;2.27;;
12950;SDS011;6540;50.858;7.232;2022-08-03T09:49:35;2.83;;;2.17;;
12950;SDS011;6540;50.858;7.232;2022-08-03T09:52:10;2.50;;;2.00;;
12950;SDS011;6540;50.858;7.232;2022-08-03T09:54:38;4.37;;;2.33;;
12950;SDS011;6540;50.858;7.232;2022-08-03T09:57:06;2.17;;;1.97;;
12950;SDS011;6540;50.858;7.232;2022-08-03T09:59:32;3.63;;;2.10;;
12950;SDS011;6540;50.858;7.232;2022-08-03T10:01:58;2.37;;;1.80;;
12950;SDS011;6540;50.858;7.232;2022-08-03T10:04:25;2.20;;;1.90;;
12950;SDS011;6540;50.858;7.232;2022-08-03T10:07:01;6.33;;;2.10;;
12950;SDS011;6540;50.858;7.232;2022-08-03T10:09:26;2.73;;;2.47;;
12950;SDS011;6540;50.858;7.232;2022-08-03T10:11:52;2.50;;;2.10;;
12950;SDS011;6540;50.858;7.232;2022-08-03T10:14:18;7.73;;;2.70;;
12950;SDS011;6540;50.858;7.232;2022-08-03T10:16:44;2.63;;;2.23;;
12950;SDS011;6540;50.858;7.232;2022-08-03T10:19:11;2.60;;;2.00;;
12950;SDS011;6540;50.858;7.232;2022-08-03T10:21:39;2.30;;;2.10;;
12950;SDS011;6540;50.858;7.232;2022-08-03T10:24:07;4.30;;;2.10;;
12950;SDS011;6540;50.858;7.232;2022-08-03T10:26:35;2.23;;;2.03;;
12950;SDS011;6540;50.858;7.232;2022-08-03T10:29:04;3.83;;;1.93;;
12950;SDS011;6540;50.858;7.232;2022-08-03T10:31:39;2.43;;;2.23;;
12950;SDS011;6540;50.858;7.232;2022-08-03T10:34:18;3.37;;;2.07;;
12950;SDS011;6540;50.858;7.232;2022-08-03T10:36:48;14.77;;;2.80;;
12950;SDS011;6540;50.858;7.232;2022-08-03T10:39:17;3.10;;;1.97;;
12950;SDS011;6540;50.858;7.232;2022-08-03T10:41:43;2.37;;;1.93;;
12950;SDS011;6540;50.858;7.232;2022-08-03T10:44:17;2.30;;;2.10;;
12950;SDS011;6540;50.858;7.232;2022-08-03T10:46:43;2.00;;;1.80;;
12950;SDS011;6540;50.858;7.232;2022-08-03T10:49:14;2.43;;;1.90;;
12950;SDS011;6540;50.858;7.232;2022-08-03T10:51:41;3.80;;;1.80;;
12950;SDS011;6540;50.858;7.232;2022-08-03T11:05:41;4.40;;;1.90;;
12950;SDS011;6540;50.858;7.232;2022-08-03T11:10:49;3.73;;;2.10;;
12950;SDS011;6540;50.858;7.232;2022-08-03T11:13:17;2.47;;;2.27;;
12950;SDS011;6540;50.858;7.232;2022-08-03T11:15:46;5.37;;;1.97;;
12950;SDS011;6540;50.858;7.232;2022-08-03T11:18:13;4.03;;;2.13;;
12950;SDS011;6540;50.858;7.232;2022-08-03T11:20:52;4.47;;;2.20;;
12950;SDS011;6540;50.858;7.232;2022-08-03T11:24:05;5.67;;;2.17;;
12950;SDS011;6540;50.858;7.232;2022-08-03T11:26:10;2.43;;;2.17;;
12950;SDS011;6540;50.858;7.232;2022-08-03T11:28:37;2.57;;;2.27;;
12950;SDS011;6540;50.858;7.232;2022-08-03T11:36:28;3.40;;;2.13;;
12950;SDS011;6540;50.858;7.232;2022-08-03T11:39:12;3.13;;;2.10;;
12950;SDS011;6540;50.858;7.232;2022-08-03T11:41:38;4.37;;;2.10;;
12950;SDS011;6540;50.858;7.232;2022-08-03T11:44:04;2.07;;;1.90;;
12950;SDS011;6540;50.858;7.232;2022-08-03T11:46:34;3.97;;;1.93;;
12950;SDS011;6540;50.858;7.232;2022-08-03T11:49:04;2.57;;;1.80;;
12950;SDS011;6540;50.858;7.232;2022-08-03T11:51:33;2.10;;;1.90;;
12950;SDS011;6540;50.858;7.232;2022-08-03T11:53:59;3.67;;;2.00;;
12950;SDS011;6540;50.858;7.232;2022-08-03T11:56:26;2.13;;;1.93;;
12950;SDS011;6540;50.858;7.232;2022-08-03T11:58:54;3.23;;;2.30;;
12950;SDS011;6540;50.858;7.232;2022-08-03T12:01:22;3.97;;;2.30;;
12950;SDS011;6540;50.858;7.232;2022-08-03T12:03:48;3.57;;;1.93;;
12950;SDS011;6540;50.858;7.232;2022-08-03T12:06:15;2.33;;;1.93;;
12950;SDS011;6540;50.858;7.232;2022-08-03T12:08:42;4.97;;;2.00;;
12950;SDS011;6540;50.858;7.232;2022-08-03T12:11:09;2.27;;;2.07;;
12950;SDS011;6540;50.858;7.232;2022-08-03T12:13:37;2.80;;;2.07;;
12950;SDS011;6540;50.858;7.232;2022-08-03T12:16:04;2.00;;;1.80;;
12950;SDS011;6540;50.858;7.232;2022-08-03T12:18:30;2.20;;;2.00;;
12950;SDS011;6540;50.858;7.232;2022-08-03T12:21:09;2.10;;;2.00;;
12950;SDS011;6540;50.858;7.232;2022-08-03T12:23:36;2.67;;;2.20;;
12950;SDS011;6540;50.858;7.232;2022-08-03T12:26:06;7.60;;;2.03;;
12950;SDS011;6540;50.858;7.232;2022-08-03T12:28:34;6.77;;;2.20;;
12950;SDS011;6540;50.858;7.232;2022-08-03T12:31:06;2.10;;;1.90;;
12950;SDS011;6540;50.858;7.232;2022-08-03T12:36:22;2.50;;;1.67;;
12950;SDS011;6540;50.858;7.232;2022-08-03T12:38:58;2.50;;;1.93;;
12950;SDS011;6540;50.858;7.232;2022-08-03T12:43:55;4.30;;;1.90;;
12950;SDS011;6540;50.858;7.232;2022-08-03T12:46:21;1.90;;;1.80;;
12950;SDS011;6540;50.858;7.232;2022-08-03T12:54:17;2.03;;;1.92;;
12950;SDS011;6540;50.858;7.232;2022-08-03T12:57:00;4.38;;;2.28;;
12950;SDS011;6540;50.858;7.232;2022-08-03T12:59:31;2.03;;;1.80;;
12950;SDS011;6540;50.858;7.232;2022-08-03T13:01:58;2.97;;;2.28;;
12950;SDS011;6540;50.858;7.232;2022-08-03T13:04:25;2.30;;;1.92;;
12950;SDS011;6540;50.858;7.232;2022-08-03T13:06:58;2.25;;;1.80;;
12950;SDS011;6540;50.858;7.232;2022-08-03T13:09:39;6.55;;;2.00;;
12950;SDS011;6540;50.858;7.232;2022-08-03T13:12:10;3.33;;;2.22;;
12950;SDS011;6540;50.858;7.232;2022-08-03T13:14:44;1.98;;;1.70;;
12950;SDS011;6540;50.858;7.232;2022-08-03T13:17:11;2.65;;;1.90;;
12950;SDS011;6540;50.858;7.232;2022-08-03T13:19:38;3.80;;;2.08;;
12950;SDS011;6540;50.858;7.232;2022-08-03T13:24:37;3.25;;;1.95;;
12950;SDS011;6540;50.858;7.232;2022-08-03T13:27:02;2.45;;;1.70;;
12950;SDS011;6540;50.858;7.232;2022-08-03T13:29:30;2.53;;;1.80;;
12950;SDS011;6540;50.858;7.232;2022-08-03T13:31:55;4.22;;;2.03;;
12950;SDS011;6540;50.858;7.232;2022-08-03T13:34:21;2.17;;;2.00;;
12950;SDS011;6540;50.858;7.232;2022-08-03T13:36:46;2.38;;;1.90;;
12950;SDS011;6540;50.858;7.232;2022-08-03T13:39:11;4.35;;;2.15;;
12950;SDS011;6540;50.858;7.232;2022-08-03T13:41:37;6.85;;;1.90;;
12950;SDS011;6540;50.858;7.232;2022-08-03T13:44:02;2.30;;;2.10;;
12950;SDS011;6540;50.858;7.232;2022-08-03T13:46:28;2.05;;;1.75;;
12950;SDS011;6540;50.858;7.232;2022-08-03T13:48:53;3.65;;;2.33;;
12950;SDS011;6540;50.858;7.232;2022-08-03T13:51:18;2.72;;;1.98;;
12950;SDS011;6540;50.858;7.232;2022-08-03T13:53:44;13.15;;;2.75;;
12950;SDS011;6540;50.858;7.232;2022-08-03T13:56:09;2.70;;;2.50;;
12950;SDS011;6540;50.858;7.232;2022-08-03T13:58:35;2.17;;;1.85;;
12950;SDS011;6540;50.858;7.232;2022-08-03T14:01:00;2.35;;;1.83;;
12950;SDS011;6540;50.858;7.232;2022-08-03T14:03:25;1.90;;;1.80;;
12950;SDS011;6540;50.858;7.232;2022-08-03T14:05:51;3.47;;;1.80;;
12950;SDS011;6540;50.858;7.232;2022-08-03T14:08:16;1.90;;;1.70;;
12950;SDS011;6540;50.858;7.232;2022-08-03T14:10:42;4.25;;;1.92;;
12950;SDS011;6540;50.858;7.232;2022-08-03T14:13:09;4.03;;;1.80;;
12950;SDS011;6540;50.858;7.232;2022-08-03T14:15:39;2.28;;;1.50;;
12950;SDS011;6540;50.858;7.232;2022-08-03T14:18:06;2.17;;;1.88;;
12950;SDS011;6540;50.858;7.232;2022-08-03T14:20:32;2.67;;;1.90;;
12950;SDS011;6540;50.858;7.232;2022-08-03T14:22:58;3.08;;;1.98;;
12950;SDS011;6540;50.858;7.232;2022-08-03T14:25:23;1.70;;;1.60;;
12950;SDS011;6540;50.858;7.232;2022-08-03T14:27:49;1.98;;;1.77;;
12950;SDS011;6540;50.858;7.232;2022-08-03T14:30:14;4.63;;;1.80;;
12950;SDS011;6540;50.858;7.232;2022-08-03T14:32:40;1.90;;;1.75;;
12950;SDS011;6540;50.858;7.232;2022-08-03T14:35:05;2.85;;;1.90;;
12950;SDS011;6540;50.858;7.232;2022-08-03T14:37:31;2.30;;;2.10;;
12950;SDS011;6540;50.858;7.232;2022-08-03T14:39:57;2.20;;;1.98;;
12950;SDS011;6540;50.858;7.232;2022-08-03T14:42:23;4.93;;;2.17;;
12950;SDS011;6540;50.858;7.232;2022-08-03T14:44:48;2.65;;;2.28;;
12950;SDS011;6540;50.858;7.232;2022-08-03T14:47:13;3.72;;;1.88;;
12950;SDS011;6540;50.858;7.232;2022-08-03T14:49:39;3.17;;;2.03;;
12950;SDS011;6540;50.858;7.232;2022-08-03T14:52:04;1.90;;;1.80;;
12950;SDS011;6540;50.858;7.232;2022-08-03T14:54:30;2.33;;;1.70;;
12950;SDS011;6540;50.858;7.232;2022-08-03T14:56:56;2.10;;;1.90;;
12950;SDS011;6540;50.858;7.232;2022-08-03T14:59:22;2.00;;;1.80;;
12950;SDS011;6540;50.858;7.232;2022-08-03T15:01:48;4.57;;;2.05;;
12950;SDS011;6540;50.858;7.232;2022-08-03T15:04:13;3.70;;;1.98;;
12950;SDS011;6540;50.858;7.232;2022-08-03T15:06:39;2.45;;;1.85;;
12950;SDS011;6540;50.858;7.232;2022-08-03T15:09:04;3.38;;;1.80;;
12950;SDS011;6540;50.858;7.232;2022-08-03T15:11:30;3.95;;;2.05;;
12950;SDS011;6540;50.858;7.232;2022-08-03T15:13:55;2.83;;;1.95;;
12950;SDS011;6540;50.858;7.232;2022-08-03T15:16:20;2.50;;;1.70;;
12950;SDS011;6540;50.858;7.232;2022-08-03T15:18:46;5.35;;;2.30;;
12950;SDS011;6540;50.858;7.232;2022-08-03T15:21:11;2.72;;;1.88;;
12950;SDS011;6540;50.858;7.232;2022-08-03T15:23:37;2.80;;;2.10;;
12950;SDS011;6540;50.858;7.232;2022-08-03T15:26:02;2.22;;;1.85;;
12950;SDS011;6540;50.858;7.232;2022-08-03T15:28:27;2.33;;;1.90;;
12950;SDS011;6540;50.858;7.232;2022-08-03T15:30:53;4.63;;;2.17;;
12950;SDS011;6540;50.858;7.232;2022-08-03T15:33:18;4.20;;;2.20;;
12950;SDS011;6540;50.858;7.232;2022-08-03T15:35:44;3.15;;;2.08;;
12950;SDS011;6540;50.858;7.232;2022-08-03T15:38:11;4.35;;;2.22;;
12950;SDS011;6540;50.858;7.232;2022-08-03T15:40:36;2.88;;;1.90;;
12950;SDS011;6540;50.858;7.232;2022-08-03T15:43:02;5.15;;;2.17;;
12950;SDS011;6540;50.858;7.232;2022-08-03T15:45:27;5.13;;;2.35;;
12950;SDS011;6540;50.858;7.232;2022-08-03T15:47:53;3.92;;;2.03;;
12950;SDS011;6540;50.858;7.232;2022-08-03T15:50:18;2.97;;;1.90;;
12950;SDS011;6540;50.858;7.232;2022-08-03T15:52:43;3.65;;;2.55;;